Time;durP1;ratioP1;P1;durP2;ratioP2;P2;SDS_P1;SDS_P2;PMS_P1;PMS_P2;Temp;Humidity;BMP_temperature;BMP_pressure;BME280_temperature;BME280_humidity;BME280_pressure;Samples;Min_cycle;Max_cycle;Signal;HPM_P1;HPM_P2
2022/10/24 00:00:58;;;;;;;5.80;4.37;;;14.90;99.90;;;;;;5099197;28;20427;-38
2022/10/24 00:03:25;;;;;;;5.10;3.70;;;15.00;99.90;;;;;;5099067;28;20407;-36
2022/10/24 00:05:55;;;;;;;8.13;3.63;;;15.00;99.90;;;;;;5099158;28;20403;-34
2022/10/24 00:08:22;;;;;;;6.17;4.00;;;14.90;99.90;;;;;;5099005;28;20455;-36
2022/10/24 00:10:52;;;;;;;5.20;4.27;;;14.90;99.90;;;;;;5098968;28;20403;-36
2022/10/24 00:13:19;;;;;;;6.07;3.87;;;14.90;99.90;;;;;;5098576;28;20438;-39
2022/10/24 00:15:47;;;;;;;5.07;3.30;;;14.90;99.90;;;;;;5098640;28;20411;-38
2022/10/24 00:18:16;;;;;;;9.20;6.57;;;14.90;99.90;;;;;;5098737;28;20466;-37
2022/10/24 00:20:43;;;;;;;10.60;5.30;;;14.90;99.90;;;;;;5098988;28;20414;-37
2022/10/24 00:23:12;;;;;;;8.13;5.10;;;14.70;99.90;;;;;;5098611;28;20529;-36
2022/10/24 00:25:47;;;;;;;9.73;5.00;;;14.80;99.90;;;;;;5098647;28;20430;-40
2022/10/24 00:28:17;;;;;;;6.90;3.90;;;14.60;99.90;;;;;;5098648;28;20469;-36
2022/10/24 00:30:46;;;;;;;6.63;4.97;;;14.60;99.90;;;;;;5098644;28;20494;-38
2022/10/24 00:33:14;;;;;;;6.37;4.67;;;14.60;99.90;;;;;;5097766;28;20675;-34
2022/10/24 00:35:44;;;;;;;8.60;4.97;;;14.50;99.90;;;;;;5098662;28;20415;-36
2022/10/24 00:38:14;;;;;;;6.87;4.03;;;14.50;99.90;;;;;;5098787;28;20410;-35
2022/10/24 00:40:45;;;;;;;6.23;4.90;;;14.50;99.90;;;;;;5098493;28;20406;-36
2022/10/24 00:43:14;;;;;;;10.33;5.27;;;14.40;99.90;;;;;;5098796;28;20498;-35
2022/10/24 00:45:45;;;;;;;10.60;5.47;;;14.40;99.90;;;;;;5098015;28;20474;-38
2022/10/24 00:48:21;;;;;;;7.20;4.70;;;14.40;99.90;;;;;;5098521;28;20407;-36
2022/10/24 00:50:52;;;;;;;7.27;4.80;;;14.40;99.90;;;;;;5098780;28;20490;-36
2022/10/24 00:53:31;;;;;;;7.87;5.30;;;14.40;99.90;;;;;;5098931;28;20465;-35
2022/10/24 00:56:03;;;;;;;6.53;3.90;;;14.40;99.90;;;;;;5098652;28;20506;-34
2022/10/24 00:58:32;;;;;;;6.00;4.90;;;14.40;99.90;;;;;;5098589;28;20403;-36
2022/10/24 01:00:59;;;;;;;6.70;4.67;;;14.40;99.90;;;;;;5098343;28;20446;-36
2022/10/24 01:03:26;;;;;;;4.83;3.77;;;14.40;99.90;;;;;;5098310;28;20486;-35
2022/10/24 01:06:08;;;;;;;4.67;3.67;;;14.40;99.90;;;;;;5098465;28;20478;-39
2022/10/24 01:08:45;;;;;;;6.60;3.83;;;14.40;99.90;;;;;;5098373;28;20450;-37
2022/10/24 01:11:23;;;;;;;6.90;4.47;;;14.40;99.90;;;;;;5091243;28;20491;-36
2022/10/24 01:14:00;;;;;;;4.57;3.57;;;14.40;99.90;;;;;;5078223;28;20745;-34
2022/10/24 01:16:35;;;;;;;8.67;4.20;;;14.30;99.90;;;;;;5078154;28;20412;-35
2022/10/24 01:19:14;;;;;;;14.03;4.70;;;14.30;99.90;;;;;;5078256;28;20476;-34
2022/10/24 01:21:49;;;;;;;7.23;3.73;;;14.30;99.90;;;;;;5078239;28;20415;-34
2022/10/24 01:24:37;;;;;;;7.50;5.17;;;14.40;99.90;;;;;;5078329;28;20459;-36
2022/10/24 01:27:40;;;;;;;20.80;12.63;;;14.40;99.90;;;;;;5078222;28;20486;-36
2022/10/24 01:30:18;;;;;;;4.60;3.77;;;14.40;99.90;;;;;;5077956;28;20478;-38
2022/10/24 01:32:57;;;;;;;6.30;3.60;;;14.40;99.90;;;;;;5078091;28;20419;-35
2022/10/24 01:35:35;;;;;;;9.63;4.47;;;14.40;99.90;;;;;;5080956;28;20662;-38
2022/10/24 01:38:11;;;;;;;6.67;4.40;;;14.40;99.90;;;;;;5081939;28;20399;-36
2022/10/24 01:40:44;;;;;;;7.50;3.93;;;14.40;99.90;;;;;;5081731;28;20442;-37
2022/10/24 01:43:13;;;;;;;7.87;3.97;;;14.40;99.90;;;;;;5081926;28;20419;-40
2022/10/24 01:45:47;;;;;;;9.37;4.70;;;14.40;99.90;;;;;;5081469;28;20479;-34
2022/10/24 01:48:19;;;;;;;11.13;4.50;;;14.40;99.90;;;;;;5081721;28;20408;-35
2022/10/24 01:50:51;;;;;;;6.80;3.73;;;14.40;99.90;;;;;;5081629;28;20459;-35
2022/10/24 01:53:21;;;;;;;4.80;3.77;;;14.40;99.90;;;;;;5081569;28;20439;-32
2022/10/24 01:55:50;;;;;;;4.43;3.50;;;14.40;99.90;;;;;;5081410;28;20467;-38
2022/10/24 01:58:18;;;;;;;4.47;3.50;;;14.40;99.90;;;;;;5081562;28;20476;-41
2022/10/24 02:00:50;;;;;;;7.60;3.90;;;14.40;99.90;;;;;;5081345;28;20435;-37
2022/10/24 02:03:26;;;;;;;6.00;4.53;;;14.40;99.90;;;;;;5081422;28;20408;-35
2022/10/24 02:05:56;;;;;;;10.53;4.53;;;14.40;99.90;;;;;;5081189;28;20442;-36
2022/10/24 02:08:28;;;;;;;6.80;4.30;;;14.40;99.90;;;;;;5088878;28;20418;-36
2022/10/24 02:10:58;;;;;;;6.77;4.40;;;14.40;99.90;;;;;;5101500;28;20434;-33
2022/10/24 02:13:30;;;;;;;5.30;4.40;;;14.50;99.90;;;;;;5101439;28;20419;-37
2022/10/24 02:16:05;;;;;;;5.13;3.90;;;14.40;99.90;;;;;;5101060;28;20410;-37
2022/10/24 02:18:33;;;;;;;5.70;4.07;;;14.40;99.90;;;;;;5101306;28;20432;-34
2022/10/24 02:21:08;;;;;;;4.50;4.10;;;14.40;99.90;;;;;;5101119;28;20418;-37
2022/10/24 02:23:42;;;;;;;7.53;4.80;;;14.40;99.90;;;;;;5101051;28;20440;-34
2022/10/24 02:26:13;;;;;;;7.10;4.07;;;14.30;99.90;;;;;;5100964;28;20458;-36
2022/10/24 02:28:48;;;;;;;13.20;4.20;;;14.40;99.90;;;;;;5101141;28;20444;-39
2022/10/24 02:31:20;;;;;;;7.53;4.27;;;14.40;99.90;;;;;;5101069;28;20409;-37
2022/10/24 02:33:52;;;;;;;6.37;4.73;;;14.40;99.90;;;;;;5100857;28;20442;-35
2022/10/24 02:36:24;;;;;;;6.40;3.80;;;14.40;99.90;;;;;;5100893;28;20414;-37
2022/10/24 02:38:57;;;;;;;6.30;3.27;;;14.40;99.90;;;;;;5100804;28;20433;-33
2022/10/24 02:41:30;;;;;;;9.13;4.07;;;14.30;99.90;;;;;;5100451;28;20419;-37
2022/10/24 02:44:07;;;;;;;5.80;3.80;;;14.40;99.90;;;;;;5100647;28;20450;-33
2022/10/24 02:46:39;;;;;;;6.90;4.20;;;14.30;99.90;;;;;;5100691;28;20416;-35
2022/10/24 02:49:08;;;;;;;6.03;3.93;;;14.40;99.90;;;;;;5100450;28;20466;-36
2022/10/24 02:51:46;;;;;;;6.87;3.50;;;14.30;99.90;;;;;;5100639;28;20407;-36
2022/10/24 02:54:13;;;;;;;7.33;4.27;;;14.20;99.90;;;;;;5100031;28;20411;-36
2022/10/24 02:56:43;;;;;;;5.47;3.97;;;14.20;99.90;;;;;;5100203;28;20490;-40
2022/10/24 02:59:10;;;;;;;7.30;3.93;;;14.30;99.90;;;;;;5087083;28;20434;-43
2022/10/24 03:01:38;;;;;;;7.87;3.57;;;14.20;99.90;;;;;;5081215;28;20454;-42
2022/10/24 03:04:05;;;;;;;5.50;3.53;;;14.20;99.90;;;;;;5081504;28;20442;-42
2022/10/24 03:06:32;;;;;;;7.60;4.50;;;14.20;99.90;;;;;;5080911;28;20472;-43
2022/10/24 03:09:02;;;;;;;5.10;3.77;;;14.20;99.90;;;;;;5080725;28;20492;-44
2022/10/24 03:11:29;;;;;;;7.50;4.47;;;14.10;99.90;;;;;;5080734;28;20485;-39
2022/10/24 03:13:55;;;;;;;4.70;3.30;;;14.10;99.90;;;;;;5087899;28;20442;-45
2022/10/24 03:16:23;;;;;;;3.97;3.20;;;14.10;99.90;;;;;;5085530;28;20484;-42
2022/10/24 03:18:52;;;;;;;5.80;3.40;;;14.10;99.90;;;;;;5080762;28;20466;-40
2022/10/24 03:21:18;;;;;;;7.10;4.70;;;14.10;99.90;;;;;;5080173;28;20800;-41
2022/10/24 03:23:47;;;;;;;4.40;3.47;;;14.10;99.90;;;;;;5080402;28;20437;-43
2022/10/24 03:26:14;;;;;;;7.80;4.30;;;14.10;99.90;;;;;;5081260;28;20452;-41
2022/10/24 03:28:41;;;;;;;6.33;3.80;;;14.10;99.90;;;;;;5081219;28;20922;-41
2022/10/24 03:31:08;;;;;;;7.37;3.60;;;14.10;99.90;;;;;;5080431;28;20488;-42
2022/10/24 03:33:35;;;;;;;4.60;3.80;;;14.10;99.90;;;;;;5081116;28;20943;-43
2022/10/24 03:36:05;;;;;;;5.53;3.47;;;14.10;99.90;;;;;;5081164;28;20454;-43
2022/10/24 03:38:32;;;;;;;5.43;3.77;;;14.10;99.90;;;;;;5085333;28;20494;-43
2022/10/24 03:40:59;;;;;;;6.53;3.80;;;14.10;99.90;;;;;;5096599;28;20419;-39
2022/10/24 03:43:28;;;;;;;4.60;3.43;;;14.10;99.90;;;;;;5096982;28;20442;-40
2022/10/24 03:45:55;;;;;;;4.30;2.90;;;14.10;99.90;;;;;;5096425;28;20427;-41
2022/10/24 03:48:22;;;;;;;4.90;3.13;;;14.10;99.90;;;;;;5094885;28;20426;-40
2022/10/24 03:50:48;;;;;;;7.83;3.17;;;14.10;99.90;;;;;;5093622;28;20484;-43
2022/10/24 03:53:17;;;;;;;4.60;3.80;;;14.10;99.90;;;;;;5094153;28;20502;-40
2022/10/24 03:55:44;;;;;;;8.13;3.47;;;13.80;99.90;;;;;;5091628;28;20474;-38
2022/10/24 03:58:11;;;;;;;4.57;2.80;;;14.10;99.90;;;;;;5091454;28;20438;-39
2022/10/24 04:00:39;;;;;;;5.53;3.70;;;14.40;99.90;;;;;;5084133;28;20755;-42
2022/10/24 04:03:06;;;;;;;5.07;3.33;;;14.10;99.90;;;;;;5083863;28;20546;-39
2022/10/24 04:05:34;;;;;;;6.20;3.90;;;14.00;99.90;;;;;;5085277;28;20434;-41
2022/10/24 04:08:01;;;;;;;4.73;3.40;;;14.00;99.90;;;;;;5086138;28;20549;-46
2022/10/24 04:10:29;;;;;;;8.00;3.70;;;14.10;99.90;;;;;;5086179;28;20974;-42
2022/10/24 04:12:56;;;;;;;8.23;4.93;;;13.90;99.90;;;;;;5092210;28;20457;-42
2022/10/24 04:15:23;;;;;;;6.17;4.90;;;13.90;99.90;;;;;;5089447;28;20456;-40
2022/10/24 04:17:55;;;;;;;5.20;4.17;;;13.90;99.90;;;;;;5090160;28;20439;-42
2022/10/24 04:20:22;;;;;;;7.23;4.27;;;13.90;99.90;;;;;;5086568;28;20422;-43
2022/10/24 04:22:49;;;;;;;6.27;4.07;;;13.90;99.90;;;;;;5087195;28;20459;-41
2022/10/24 04:25:17;;;;;;;4.77;4.10;;;13.90;99.90;;;;;;5087469;28;20462;-43
2022/10/24 04:27:45;;;;;;;13.37;4.53;;;13.90;99.90;;;;;;5086595;28;20435;-44
2022/10/24 04:30:14;;;;;;;3.23;2.87;;;13.90;99.90;;;;;;5086672;28;20475;-43
2022/10/24 04:32:41;;;;;;;7.03;3.70;;;13.90;99.90;;;;;;5086571;28;20470;-42
2022/10/24 04:35:09;;;;;;;7.17;4.30;;;13.90;99.90;;;;;;5086941;28;20447;-45
2022/10/24 04:37:36;;;;;;;12.33;5.30;;;13.90;99.90;;;;;;5087292;28;20470;-44
2022/10/24 04:40:04;;;;;;;36.17;17.97;;;13.90;99.90;;;;;;5083925;28;20462;-43
2022/10/24 04:42:30;;;;;;;9.17;6.00;;;13.90;99.90;;;;;;5085511;28;20909;-44
2022/10/24 04:44:58;;;;;;;8.67;5.40;;;13.90;99.90;;;;;;5082610;28;117447;-42
2022/10/24 04:47:25;;;;;;;17.73;9.43;;;13.90;99.90;;;;;;5088304;28;20438;-43
2022/10/24 04:49:53;;;;;;;12.47;6.93;;;13.90;99.90;;;;;;5088714;28;20806;-43
2022/10/24 04:52:20;;;;;;;5.97;4.20;;;13.90;99.90;;;;;;5087819;28;20434;-40
2022/10/24 04:54:47;;;;;;;6.40;4.00;;;13.90;99.90;;;;;;5088445;28;20431;-40
2022/10/24 04:57:13;;;;;;;4.30;3.80;;;13.90;99.90;;;;;;5088849;28;20450;-43
2022/10/24 04:59:40;;;;;;;5.40;3.33;;;13.90;99.90;;;;;;5088981;28;20438;-41
2022/10/24 05:02:08;;;;;;;7.57;3.33;;;13.90;99.90;;;;;;5087996;28;20470;-42
2022/10/24 05:04:35;;;;;;;4.63;2.90;;;13.90;99.90;;;;;;5088977;28;20442;-42
2022/10/24 05:07:02;;;;;;;5.90;3.03;;;13.90;99.90;;;;;;5084045;28;20443;-41
2022/10/24 05:09:29;;;;;;;4.73;3.67;;;13.90;99.90;;;;;;5084487;28;20457;-44
2022/10/24 05:11:56;;;;;;;6.40;4.20;;;13.90;99.90;;;;;;5083388;28;20457;-44
2022/10/24 05:14:26;;;;;;;6.80;3.50;;;13.90;99.90;;;;;;5083749;28;20469;-45
2022/10/24 05:16:52;;;;;;;4.17;3.07;;;13.90;99.90;;;;;;5088294;28;20451;-43
2022/10/24 05:19:21;;;;;;;4.90;3.40;;;13.90;99.90;;;;;;5083207;28;20434;-42
2022/10/24 05:21:47;;;;;;;4.90;3.23;;;13.90;99.90;;;;;;5083151;28;20798;-46
2022/10/24 05:24:14;;;;;;;5.93;3.00;;;13.90;99.90;;;;;;5083072;28;20454;-47
2022/10/24 05:26:41;;;;;;;5.17;3.40;;;13.90;99.90;;;;;;5085807;28;20473;-49
2022/10/24 05:29:08;;;;;;;7.80;3.80;;;13.90;99.90;;;;;;5083738;28;20533;-49
2022/10/24 05:31:35;;;;;;;4.50;3.30;;;13.90;99.90;;;;;;5086829;28;20482;-44
2022/10/24 05:34:01;;;;;;;6.17;3.60;;;13.90;99.90;;;;;;5101335;28;20449;-41
2022/10/24 05:36:30;;;;;;;5.90;3.30;;;13.90;99.90;;;;;;5103460;28;20452;-43
2022/10/24 05:38:56;;;;;;;3.23;2.47;;;13.90;99.90;;;;;;5103189;28;20477;-40
2022/10/24 05:41:23;;;;;;;6.37;3.57;;;13.80;99.90;;;;;;5105524;28;20471;-42
2022/10/24 05:43:50;;;;;;;8.73;3.73;;;13.80;99.90;;;;;;5103115;28;20445;-42
2022/10/24 05:46:16;;;;;;;7.47;3.80;;;13.80;99.90;;;;;;5103560;28;20469;-44
2022/10/24 05:48:43;;;;;;;7.23;3.00;;;13.80;99.90;;;;;;5103107;28;20441;-43
2022/10/24 05:51:10;;;;;;;2.73;2.43;;;13.80;99.90;;;;;;5102927;28;20491;-45
2022/10/24 05:53:38;;;;;;;7.20;3.60;;;13.90;99.90;;;;;;5102654;28;20476;-46
2022/10/24 05:56:05;;;;;;;4.40;3.20;;;13.90;99.90;;;;;;5100605;28;20937;-43
2022/10/24 05:58:32;;;;;;;4.70;2.93;;;13.80;99.90;;;;;;5099816;28;20790;-41
2022/10/24 06:01:00;;;;;;;6.07;3.47;;;13.80;99.90;;;;;;5100174;28;20840;-42
2022/10/24 06:03:27;;;;;;;6.30;2.93;;;13.80;99.90;;;;;;5101807;28;20763;-40
2022/10/24 06:05:54;;;;;;;3.70;3.33;;;13.90;99.90;;;;;;5107547;28;20455;-40
2022/10/24 06:08:20;;;;;;;5.07;3.57;;;13.90;99.90;;;;;;5105060;28;20462;-44
2022/10/24 06:10:50;;;;;;;3.97;3.43;;;13.90;99.90;;;;;;5099397;28;20469;-40
2022/10/24 06:13:18;;;;;;;13.60;3.80;;;13.90;99.90;;;;;;5102259;28;20449;-43
2022/10/24 06:15:45;;;;;;;6.60;3.97;;;14.00;99.90;;;;;;5102349;28;20798;-44
2022/10/24 06:18:11;;;;;;;3.40;3.03;;;14.00;99.90;;;;;;5103450;28;20437;-44
2022/10/24 06:20:38;;;;;;;5.37;3.00;;;14.00;99.90;;;;;;5097843;28;20435;-42
2022/10/24 06:23:05;;;;;;;5.63;4.07;;;13.90;99.90;;;;;;5090929;28;20447;-44
2022/10/24 06:25:32;;;;;;;4.67;3.77;;;14.00;99.90;;;;;;5099383;28;20786;-45
2022/10/24 06:28:00;;;;;;;7.00;3.67;;;14.00;99.90;;;;;;5092879;28;20968;-43
2022/10/24 06:30:27;;;;;;;7.10;3.57;;;14.00;99.90;;;;;;5094077;28;20476;-40
2022/10/24 06:32:54;;;;;;;3.90;3.23;;;14.00;99.90;;;;;;5098229;28;20441;-43
2022/10/24 06:35:21;;;;;;;5.57;4.00;;;14.10;99.90;;;;;;5089323;28;20462;-40
2022/10/24 06:37:48;;;;;;;4.67;3.40;;;14.10;99.90;;;;;;5076116;28;20445;-41
2022/10/24 06:40:14;;;;;;;6.10;3.90;;;14.00;99.90;;;;;;5075550;28;20482;-42
2022/10/24 06:42:41;;;;;;;5.10;3.33;;;14.10;99.90;;;;;;5076435;28;20454;-44
2022/10/24 06:45:10;;;;;;;4.70;3.67;;;14.20;99.90;;;;;;5075386;28;20552;-45
2022/10/24 06:47:37;;;;;;;5.23;4.20;;;14.20;99.90;;;;;;5075779;28;20453;-42
2022/10/24 06:50:04;;;;;;;5.60;3.07;;;14.20;99.90;;;;;;5075835;28;20446;-44
2022/10/24 06:52:33;;;;;;;5.40;3.80;;;14.30;99.90;;;;;;5097506;28;20439;-37
2022/10/24 06:55:00;;;;;;;7.60;3.70;;;14.20;99.90;;;;;;5099542;28;20510;-37
2022/10/24 06:57:28;;;;;;;3.77;3.23;;;14.30;99.90;;;;;;5099005;28;20518;-38
2022/10/24 06:59:55;;;;;;;4.10;3.30;;;14.30;99.90;;;;;;5170258;22;20497;-39
2022/10/24 07:02:26;;;;;;;8.70;4.80;;;14.30;99.90;;;;;;5104332;28;20477;-39
2022/10/24 07:04:53;;;;;;;6.00;4.30;;;14.40;99.90;;;;;;5097375;28;20445;-39
2022/10/24 07:07:21;;;;;;;4.70;3.27;;;14.40;99.90;;;;;;5095770;28;20476;-40
2022/10/24 07:09:53;;;;;;;7.60;3.77;;;14.40;99.90;;;;;;5095863;28;20453;-40
2022/10/24 07:12:20;;;;;;;8.93;4.07;;;14.40;99.90;;;;;;5095237;28;20464;-41
2022/10/24 07:14:47;;;;;;;4.67;3.43;;;14.50;99.90;;;;;;5095162;28;20560;-40
2022/10/24 07:17:14;;;;;;;5.87;3.37;;;14.50;99.90;;;;;;5095143;28;20466;-40
2022/10/24 07:19:42;;;;;;;7.50;4.80;;;14.50;99.90;;;;;;5095008;28;20480;-39
2022/10/24 07:22:09;;;;;;;3.07;2.77;;;14.50;99.90;;;;;;5099094;28;20425;-40
2022/10/24 07:24:36;;;;;;;6.90;3.27;;;14.50;99.90;;;;;;5099588;28;20446;-38
2022/10/24 07:27:03;;;;;;;6.60;2.80;;;14.60;99.90;;;;;;5089991;28;20433;-40
2022/10/24 07:29:30;;;;;;;10.17;2.97;;;14.60;99.90;;;;;;5100118;28;20468;-40
2022/10/24 07:31:58;;;;;;;5.30;3.67;;;14.70;99.90;;;;;;5097045;28;20513;-38
2022/10/24 07:34:25;;;;;;;7.37;3.67;;;14.80;99.90;;;;;;5106402;28;20477;-39
2022/10/24 07:36:53;;;;;;;5.20;3.50;;;14.90;99.90;;;;;;5095059;28;20461;-39
2022/10/24 07:39:20;;;;;;;5.97;3.60;;;16.20;99.90;;;;;;5111337;28;20455;-39
2022/10/24 07:41:47;;;;;;;4.20;3.13;;;15.10;99.90;;;;;;5104575;28;20701;-40
2022/10/24 07:44:14;;;;;;;6.53;3.43;;;15.20;99.90;;;;;;5096239;28;20845;-39
2022/10/24 07:46:42;;;;;;;7.40;3.47;;;15.30;99.90;;;;;;5102423;28;20434;-40
2022/10/24 07:49:09;;;;;;;7.07;2.90;;;15.30;99.90;;;;;;5101836;28;20453;-41
2022/10/24 07:51:36;;;;;;;6.20;3.50;;;15.40;99.90;;;;;;5102175;28;20480;-39
2022/10/24 07:54:04;;;;;;;5.00;3.30;;;15.50;99.90;;;;;;5092855;28;20921;-39
2022/10/24 07:56:33;;;;;;;7.20;3.50;;;15.50;99.90;;;;;;5108304;28;20430;-39
2022/10/24 07:59:01;;;;;;;6.47;3.20;;;15.60;99.90;;;;;;5107122;28;20456;-39
2022/10/24 08:01:29;;;;;;;13.90;3.70;;;15.70;99.90;;;;;;5104300;28;20823;-40
2022/10/24 08:03:56;;;;;;;4.60;3.00;;;15.70;99.90;;;;;;5104969;28;20466;-39
2022/10/24 08:06:25;;;;;;;6.57;3.33;;;15.80;99.90;;;;;;5096103;28;20469;-39
2022/10/24 08:08:54;;;;;;;7.10;3.13;;;15.60;99.90;;;;;;5096127;28;20842;-39
2022/10/24 08:11:24;;;;;;;3.83;3.00;;;16.00;99.90;;;;;;5098433;28;20481;-39
2022/10/24 08:13:53;;;;;;;2.90;2.60;;;16.00;99.90;;;;;;5091232;28;20441;-38
2022/10/24 08:16:22;;;;;;;6.13;3.77;;;16.10;99.90;;;;;;5098789;28;20452;-40
2022/10/24 08:18:52;;;;;;;7.70;2.80;;;16.20;99.90;;;;;;5100198;28;20469;-39
2022/10/24 08:21:20;;;;;;;12.10;3.90;;;16.30;99.90;;;;;;5098961;28;20437;-40
2022/10/24 08:23:49;;;;;;;7.23;3.00;;;16.30;99.90;;;;;;5096747;28;20808;-41
2022/10/24 08:26:18;;;;;;;7.27;3.20;;;16.40;99.90;;;;;;5095564;28;20492;-39
2022/10/24 08:28:46;;;;;;;5.03;3.40;;;16.50;99.90;;;;;;5096358;28;20452;-40
2022/10/24 08:31:15;;;;;;;3.40;2.93;;;16.60;99.90;;;;;;5097656;28;20469;-39
2022/10/24 08:33:46;;;;;;;6.27;3.50;;;16.70;99.90;;;;;;5098358;28;20450;-41
2022/10/24 08:36:17;;;;;;;8.13;2.70;;;16.70;99.90;;;;;;5095678;28;20536;-39
2022/10/24 08:38:43;;;;;;;3.27;2.93;;;16.80;99.90;;;;;;5093710;28;20494;-41
2022/10/24 08:41:16;;;;;;;7.23;2.73;;;16.90;99.90;;;;;;5094013;28;20469;-40
2022/10/24 08:43:43;;;;;;;7.67;2.80;;;17.00;99.90;;;;;;5093390;28;20461;-39
2022/10/24 08:46:26;;;;;;;3.00;2.23;;;17.10;99.90;;;;;;5090084;28;20453;-39
2022/10/24 08:49:00;;;;;;;7.63;2.27;;;17.30;99.90;;;;;;5094068;28;20462;-42
2022/10/24 08:51:35;;;;;;;7.33;3.20;;;17.30;99.90;;;;;;5093853;28;20537;-39
2022/10/24 08:54:04;;;;;;;5.60;2.60;;;17.40;99.90;;;;;;5095212;28;20509;-39
2022/10/24 08:56:33;;;;;;;4.03;2.90;;;17.50;99.90;;;;;;5097677;28;20528;-41
2022/10/24 08:59:02;;;;;;;6.10;2.70;;;17.60;99.90;;;;;;5093686;28;20477;-40
2022/10/24 09:01:35;;;;;;;10.00;3.10;;;17.70;99.90;;;;;;5093446;28;20794;-40
2022/10/24 09:04:07;;;;;;;4.43;2.20;;;17.80;99.90;;;;;;5093959;28;21031;-40
2022/10/24 09:06:34;;;;;;;5.63;2.20;;;17.90;99.90;;;;;;5096385;28;20447;-40
2022/10/24 09:09:04;;;;;;;3.13;2.47;;;17.90;99.90;;;;;;5096455;28;20964;-40
2022/10/24 09:11:43;;;;;;;3.63;1.90;;;18.00;99.90;;;;;;5093853;28;20468;-41
2022/10/24 09:14:13;;;;;;;5.27;2.33;;;18.10;99.90;;;;;;5096937;28;20438;-41
2022/10/24 09:16:43;;;;;;;7.23;2.43;;;18.10;99.90;;;;;;5099524;28;20453;-43
2022/10/24 09:19:15;;;;;;;9.67;3.10;;;18.20;99.90;;;;;;5100177;28;20494;-39
2022/10/24 09:21:43;;;;;;;8.03;3.00;;;18.20;99.90;;;;;;5100744;28;20428;-42
2022/10/24 09:24:24;;;;;;;9.43;2.57;;;18.20;99.90;;;;;;5100113;28;20442;-38
2022/10/24 09:26:50;;;;;;;7.80;2.60;;;18.20;99.90;;;;;;5101845;28;20465;-41
2022/10/24 09:29:17;;;;;;;7.50;2.47;;;18.20;99.90;;;;;;5100442;28;20458;-39
2022/10/24 09:31:48;;;;;;;5.00;2.77;;;18.10;99.90;;;;;;5097593;28;20813;-38
2022/10/24 09:34:15;;;;;;;7.00;2.80;;;18.10;99.90;;;;;;5083535;28;20504;-41
2022/10/24 09:36:43;;;;;;;4.17;2.40;;;18.20;99.90;;;;;;5080169;28;20869;-41
2022/10/24 09:39:26;;;;;;;8.47;2.70;;;18.20;99.90;;;;;;5080912;28;20484;-39
2022/10/24 09:41:53;;;;;;;5.20;2.27;;;18.30;99.90;;;;;;5084695;28;20750;-41
2022/10/24 09:44:34;;;;;;;5.10;2.27;;;18.40;99.90;;;;;;5099650;28;20746;-40
2022/10/24 09:47:05;;;;;;;2.30;1.70;;;18.60;99.90;;;;;;5100181;28;20537;-39
2022/10/24 09:49:40;;;;;;;4.17;2.27;;;18.70;99.90;;;;;;5099930;28;20433;-41
2022/10/24 09:52:17;;;;;;;6.27;2.40;;;18.80;99.90;;;;;;5086184;28;20462;-42
2022/10/24 09:54:44;;;;;;;4.23;2.00;;;18.80;99.90;;;;;;5080245;28;20454;-42
2022/10/24 09:57:16;;;;;;;6.97;3.13;;;18.80;99.90;;;;;;5082891;28;20466;-41
2022/10/24 09:59:44;;;;;;;3.93;2.20;;;18.90;99.90;;;;;;5082901;28;20522;-38
2022/10/24 10:02:26;;;;;;;5.30;2.23;;;19.00;99.90;;;;;;5082696;28;20469;-42
2022/10/24 10:05:16;;;;;;;7.60;2.53;;;19.00;99.90;;;;;;5090042;28;20449;-39
2022/10/24 10:07:47;;;;;;;2.57;1.90;;;19.00;99.90;;;;;;5103473;28;20885;-39
2022/10/24 10:26:47;;;;;;;6.10;2.57;;;19.00;99.90;;;;;;5078322;27;20530;-35
2022/10/24 10:29:22;;;;;;;4.37;2.73;;;19.90;99.90;;;;;;5072962;28;20502;-34
2022/10/24 10:31:53;;;;;;;6.80;3.17;;;19.80;99.90;;;;;;5072983;28;20474;-36
2022/10/24 10:34:23;;;;;;;4.00;2.50;;;19.80;99.90;;;;;;5072746;28;20475;-37
2022/10/24 10:37:05;;;;;;;7.60;2.93;;;19.70;99.90;;;;;;5060890;28;20439;-36
2022/10/24 10:40:02;;;;;;;4.27;2.20;;;19.60;99.90;;;;;;5072597;28;20447;-37
2022/10/24 10:42:36;;;;;;;9.87;2.67;;;19.40;99.90;;;;;;5072763;28;20459;-38
2022/10/24 10:45:18;;;;;;;2.23;1.80;;;19.40;99.90;;;;;;5073199;28;20448;-38
2022/10/24 10:47:55;;;;;;;4.97;2.63;;;19.30;99.90;;;;;;5072817;28;20444;-38
2022/10/24 10:50:31;;;;;;;4.60;2.17;;;19.20;99.90;;;;;;5072711;28;20501;-38
2022/10/24 10:53:08;;;;;;;1.70;1.60;;;19.10;99.90;;;;;;5072157;28;20495;-38
2022/10/24 10:55:45;;;;;;;3.60;2.40;;;19.00;99.90;;;;;;5071648;28;20493;-35
2022/10/24 10:58:24;;;;;;;2.47;1.97;;;19.00;99.90;;;;;;5073013;28;20442;-36
2022/10/24 11:01:02;;;;;;;4.83;2.27;;;19.00;99.90;;;;;;5072373;28;20455;-39
2022/10/24 11:03:37;;;;;;;6.63;2.17;;;18.90;99.90;;;;;;5071423;28;20486;-37
2022/10/24 11:06:18;;;;;;;4.00;2.47;;;18.90;99.90;;;;;;5072501;28;20478;-38
2022/10/24 11:09:14;;;;;;;6.57;2.40;;;18.90;99.90;;;;;;5072442;28;20458;-42
2022/10/24 11:11:44;;;;;;;4.60;2.20;;;19.00;99.90;;;;;;5071758;28;20459;-34
2022/10/24 11:14:24;;;;;;;7.77;4.00;;;19.00;99.90;;;;;;5072046;28;20480;-35
2022/10/24 11:16:54;;;;;;;12.07;2.80;;;19.00;99.90;;;;;;5071934;28;20535;-36
2022/10/24 11:19:26;;;;;;;6.27;2.17;;;19.10;99.90;;;;;;5072082;28;20479;-36
2022/10/24 11:21:55;;;;;;;3.30;2.07;;;19.10;99.90;;;;;;5063251;28;20486;-37
2022/10/24 11:24:25;;;;;;;3.47;1.63;;;19.00;99.90;;;;;;5058482;28;20467;-38
2022/10/24 11:26:56;;;;;;;5.10;2.00;;;19.00;99.90;;;;;;5058411;28;20452;-35
2022/10/24 11:29:31;;;;;;;7.43;2.60;;;19.00;99.90;;;;;;5059306;28;20459;-35
2022/10/24 11:32:00;;;;;;;7.90;3.17;;;19.00;99.90;;;;;;5058464;28;20494;-34
2022/10/24 11:34:35;;;;;;;5.87;2.00;;;19.00;99.90;;;;;;5058453;28;20470;-35
2022/10/24 11:37:07;;;;;;;4.80;2.10;;;19.00;99.90;;;;;;5057999;28;20467;-37
2022/10/24 11:39:40;;;;;;;5.73;2.33;;;19.00;99.90;;;;;;5058086;28;20404;-37
2022/10/24 11:42:15;;;;;;;5.30;2.83;;;19.00;99.90;;;;;;5058079;28;20472;-36
2022/10/24 11:44:50;;;;;;;2.50;2.17;;;19.00;99.90;;;;;;5058316;28;20444;-37
2022/10/24 11:47:54;;;;;;;3.80;1.87;;;19.10;99.90;;;;;;5058784;28;20888;-36
2022/10/24 11:50:28;;;;;;;2.60;1.90;;;19.00;99.90;;;;;;4998370;28;20509;-36
2022/10/24 11:53:00;;;;;;;7.30;2.97;;;19.00;99.90;;;;;;4998362;28;20525;-38
2022/10/24 11:55:36;;;;;;;5.93;2.30;;;19.00;99.90;;;;;;5031424;28;20480;-34
2022/10/24 11:58:07;;;;;;;5.00;2.90;;;19.00;99.90;;;;;;5058259;28;20459;-36
2022/10/24 12:00:48;;;;;;;3.77;2.20;;;19.00;99.90;;;;;;5058239;28;20860;-35
2022/10/24 12:03:34;;;;;;;5.53;2.37;;;19.00;99.90;;;;;;5057979;28;20464;-38
2022/10/24 12:06:16;;;;;;;5.27;2.33;;;19.10;99.90;;;;;;5057665;28;20431;-36
2022/10/24 12:09:11;;;;;;;3.13;1.90;;;19.10;99.90;;;;;;5057603;28;20508;-38
2022/10/24 12:11:52;;;;;;;2.77;1.87;;;19.10;99.90;;;;;;5033078;28;20468;-39
2022/10/24 12:14:48;;;;;;;10.60;3.07;;;19.20;99.90;;;;;;5057979;28;20434;-36
2022/10/24 12:17:38;;;;;;;3.67;2.00;;;19.20;99.90;;;;;;5057648;28;20429;-36
2022/10/24 12:20:11;;;;;;;6.70;2.50;;;19.40;99.90;;;;;;5057342;28;20448;-50
2022/10/24 12:22:41;;;;;;;2.10;1.83;;;19.40;99.90;;;;;;5057966;28;20405;-47
2022/10/24 12:25:28;;;;;;;3.93;2.40;;;19.50;99.90;;;;;;5057856;28;20460;-50
2022/10/24 12:27:57;;;;;;;2.13;1.80;;;19.60;99.90;;;;;;5057843;28;20463;-48
2022/10/24 12:30:26;;;;;;;3.50;2.40;;;19.60;99.90;;;;;;5057774;28;20475;-50
2022/10/24 12:32:57;;;;;;;5.00;2.07;;;19.60;99.90;;;;;;5056837;28;20447;-45
2022/10/24 12:35:46;;;;;;;6.10;1.97;;;19.60;99.90;;;;;;5057742;28;20421;-50
2022/10/24 12:38:39;;;;;;;3.77;2.53;;;19.60;99.90;;;;;;5057556;28;20455;-46
2022/10/24 12:41:27;;;;;;;7.80;2.10;;;19.50;99.90;;;;;;5057522;28;20482;-46
2022/10/24 12:44:35;;;;;;;3.30;1.57;;;19.60;99.90;;;;;;5057899;28;20523;-51
2022/10/24 12:47:35;;;;;;;3.40;1.97;;;19.60;99.90;;;;;;5057973;28;20416;-48
2022/10/24 12:50:40;;;;;;;2.90;1.90;;;19.60;99.90;;;;;;5047563;28;20499;-49
2022/10/24 12:53:30;;;;;;;5.77;2.67;;;19.70;99.90;;;;;;5057689;28;20456;-47
2022/10/24 12:56:16;;;;;;;1.90;1.50;;;19.70;99.90;;;;;;5057406;28;20463;-54
2022/10/24 12:58:45;;;;;;;4.80;2.17;;;19.80;99.90;;;;;;5057709;28;20439;-47
2022/10/24 13:01:24;;;;;;;4.30;2.03;;;19.90;99.90;;;;;;5057262;28;20783;-50
2022/10/24 13:04:18;;;;;;;3.23;1.83;;;19.90;99.90;;;;;;5057570;28;20437;-44
2022/10/24 13:07:02;;;;;;;5.23;2.00;;;19.90;99.90;;;;;;5057817;28;20416;-50
2022/10/24 13:09:38;;;;;;;4.07;1.87;;;20.00;99.90;;;;;;5057221;28;20495;-46
2022/10/24 13:12:16;;;;;;;5.70;2.10;;;20.00;99.90;;;;;;5057331;28;20429;-39
2022/10/24 13:15:14;;;;;;;2.20;1.60;;;20.10;99.90;;;;;;5057303;28;20420;-46
2022/10/24 13:17:47;;;;;;;2.97;2.30;;;20.20;99.90;;;;;;5057320;28;21477;-50
2022/10/24 13:20:18;;;;;;;6.83;1.80;;;20.20;99.90;;;;;;5057774;28;20531;-51
2022/10/24 13:22:45;;;;;;;3.30;2.30;;;20.20;99.90;;;;;;5057539;28;20445;-47
2022/10/24 13:25:21;;;;;;;7.77;2.50;;;20.20;99.90;;;;;;5057074;28;20455;-48